Terminal Aerodrome Forecast
Issued by NWS Memphis, TN

Home | Current Version | Previous Version | Text Only | Print | Product List | Glossary On
Versions: 1 2 3 4 5 6 7 8 9 10 11 12 13 14 15 16
000
FTUS44 KMEG 301700
TAFMKL
TAF
KMKL 301731Z 3018/3118 33003KT P6SM SKC
     FM310300 00000KT P6SM SCT050 BKN100
     FM311500 35015G25KT P6SM SCT050 BKN100=

USA.gov is the U.S. government's official web portal to all federal, state and local government web resources and services.